Terminal Aerodrome Forecast
Issued by NWS

Home | Current Version | Previous Version | Text Only | Print | Product List | Glossary On
Versions: 1 2 3 4 5 6 7 8 9 10 11 12 13 14 15 16 17 18 19 20 21 22 23 24 25 26 27 28 29 30 31 32 33
000
FTUS43 KPAH 131727
TAFOWB
TAF
KOWB 131727Z 1318/1418 35008KT P6SM SCT120
     FM140000 05003KT P6SM OVC090 PROB30 1409/1412 6SM -SN BR OVC040
     FM141200 09006KT P6SM SCT025 OVC070
     FM141600 13008KT 4SM -SHSN OVC025=

USA.gov is the U.S. government's official web portal to all federal, state and local government web resources and services.